sensor_id;sensor_type;location;lat;lon;timestamp;pressure;altitude;pressure_sealevel;temperature;humidity
49729;BME280;66333;49.798;10.968;2023-02-04T00:01:50;99011.44;;;7.19;75.10
49729;BME280;66333;49.798;10.968;2023-02-04T00:04:17;99021.88;;;7.19;74.75
49729;BME280;66333;49.798;10.968;2023-02-04T00:06:43;99035.63;;;7.21;74.82
49729;BME280;66333;49.798;10.968;2023-02-04T00:09:10;99025.19;;;7.21;74.82
49729;BME280;66333;49.798;10.968;2023-02-04T00:11:37;99032.31;;;7.19;75.25
49729;BME280;66333;49.798;10.968;2023-02-04T00:14:03;99021.03;;;7.19;74.97
49729;BME280;66333;49.798;10.968;2023-02-04T00:16:31;99037.50;;;7.19;74.98
49729;BME280;66333;49.798;10.968;2023-02-04T00:18:58;99037.50;;;7.19;74.81
49729;BME280;66333;49.798;10.968;2023-02-04T00:21:24;99043.69;;;7.18;75.12
49729;BME280;66333;49.798;10.968;2023-02-04T00:23:50;99050.53;;;7.19;74.75
49729;BME280;66333;49.798;10.968;2023-02-04T00:26:17;99058.38;;;7.19;74.76
49729;BME280;66333;49.798;10.968;2023-02-04T00:28:43;99058.38;;;7.19;75.03
49729;BME280;66333;49.798;10.968;2023-02-04T00:31:10;99061.16;;;7.16;75.23
49729;BME280;66333;49.798;10.968;2023-02-04T00:33:37;99066.50;;;7.15;75.13
49729;BME280;66333;49.798;10.968;2023-02-04T00:36:07;99072.34;;;7.18;74.77
49729;BME280;66333;49.798;10.968;2023-02-04T00:38:33;99075.03;;;7.17;74.89
49729;BME280;66333;49.798;10.968;2023-02-04T00:41:00;99080.25;;;7.17;75.12
49729;BME280;66333;49.798;10.968;2023-02-04T00:43:26;99073.50;;;7.14;74.91
49729;BME280;66333;49.798;10.968;2023-02-04T00:45:53;99073.38;;;7.16;74.80
49729;BME280;66333;49.798;10.968;2023-02-04T00:48:19;99079.41;;;7.16;74.87
49729;BME280;66333;49.798;10.968;2023-02-04T00:50:47;99077.75;;;7.15;75.25
49729;BME280;66333;49.798;10.968;2023-02-04T00:53:13;99082.97;;;7.15;74.77
49729;BME280;66333;49.798;10.968;2023-02-04T00:55:40;99087.22;;;7.16;75.13
49729;BME280;66333;49.798;10.968;2023-02-04T00:58:06;99090.06;;;7.13;75.58
49729;BME280;66333;49.798;10.968;2023-02-04T01:00:32;99096.81;;;7.16;75.05
49729;BME280;66333;49.798;10.968;2023-02-04T01:02:59;99103.00;;;7.15;75.17
49729;BME280;66333;49.798;10.968;2023-02-04T01:05:25;99115.91;;;7.16;75.06
49729;BME280;66333;49.798;10.968;2023-02-04T01:07:53;99116.13;;;7.13;74.88
49729;BME280;66333;49.798;10.968;2023-02-04T01:10:19;99111.63;;;7.15;74.87
49729;BME280;66333;49.798;10.968;2023-02-04T01:12:46;99105.72;;;7.13;75.04
49729;BME280;66333;49.798;10.968;2023-02-04T01:15:12;99112.81;;;7.11;75.17
49729;BME280;66333;49.798;10.968;2023-02-04T01:17:39;99111.75;;;7.14;75.14
49729;BME280;66333;49.798;10.968;2023-02-04T01:20:06;99107.47;;;7.13;75.43
49729;BME280;66333;49.798;10.968;2023-02-04T01:22:33;99098.84;;;7.12;75.13
49729;BME280;66333;49.798;10.968;2023-02-04T01:25:01;99099.91;;;7.10;75.36
49729;BME280;66333;49.798;10.968;2023-02-04T01:27:27;99094.56;;;7.11;75.50
49729;BME280;66333;49.798;10.968;2023-02-04T01:29:54;99101.44;;;7.12;75.17
49729;BME280;66333;49.798;10.968;2023-02-04T01:32:20;99106.78;;;7.11;75.10
49729;BME280;66333;49.798;10.968;2023-02-04T01:34:47;99104.88;;;7.13;75.04
49729;BME280;66333;49.798;10.968;2023-02-04T01:37:13;99110.09;;;7.13;75.16
49729;BME280;66333;49.798;10.968;2023-02-04T01:39:39;99116.34;;;7.10;75.06
49729;BME280;66333;49.798;10.968;2023-02-04T01:42:07;99111.16;;;7.10;75.30
49729;BME280;66333;49.798;10.968;2023-02-04T01:44:34;99114.66;;;7.09;75.40
49729;BME280;66333;49.798;10.968;2023-02-04T01:47:01;99110.19;;;7.11;75.44
49729;BME280;66333;49.798;10.968;2023-02-04T01:49:28;99113.00;;;7.08;75.82
49729;BME280;66333;49.798;10.968;2023-02-04T01:51:54;99113.94;;;7.07;75.52
49729;BME280;66333;49.798;10.968;2023-02-04T01:54:21;99107.78;;;7.08;75.06
49729;BME280;66333;49.798;10.968;2023-02-04T01:56:48;99117.38;;;7.07;75.21
49729;BME280;66333;49.798;10.968;2023-02-04T01:59:17;99115.53;;;7.10;74.86
49729;BME280;66333;49.798;10.968;2023-02-04T02:01:46;99119.16;;;7.07;75.38
49729;BME280;66333;49.798;10.968;2023-02-04T02:04:14;99107.78;;;7.08;75.21
49729;BME280;66333;49.798;10.968;2023-02-04T02:06:43;99112.28;;;7.06;75.68
49729;BME280;66333;49.798;10.968;2023-02-04T02:09:12;99120.09;;;7.06;75.40
49729;BME280;66333;49.798;10.968;2023-02-04T02:11:38;99119.16;;;7.07;75.21
49729;BME280;66333;49.798;10.968;2023-02-04T02:14:05;99134.09;;;7.05;75.50
49729;BME280;66333;49.798;10.968;2023-02-04T02:16:32;99135.75;;;7.06;75.42
49729;BME280;66333;49.798;10.968;2023-02-04T02:18:59;99143.44;;;7.07;75.08
49729;BME280;66333;49.798;10.968;2023-02-04T02:21:31;99146.16;;;7.06;75.09
49729;BME280;66333;49.798;10.968;2023-02-04T02:24:23;99141.78;;;7.06;75.13
49729;BME280;66333;49.798;10.968;2023-02-04T02:26:50;99144.50;;;7.05;75.13
49729;BME280;66333;49.798;10.968;2023-02-04T02:29:17;99158.47;;;7.04;75.44
49729;BME280;66333;49.798;10.968;2023-02-04T02:31:44;99155.16;;;7.02;75.24
49729;BME280;66333;49.798;10.968;2023-02-04T02:34:10;99156.81;;;7.03;75.35
49729;BME280;66333;49.798;10.968;2023-02-04T02:36:37;99158.72;;;7.01;75.70
49729;BME280;66333;49.798;10.968;2023-02-04T02:39:05;99164.81;;;7.00;76.15
49729;BME280;66333;49.798;10.968;2023-02-04T02:41:32;99168.25;;;7.00;75.59
49729;BME280;66333;49.798;10.968;2023-02-04T02:43:59;99170.78;;;7.02;75.83
49729;BME280;66333;49.798;10.968;2023-02-04T02:46:26;99157.25;;;6.97;75.62
49729;BME280;66333;49.798;10.968;2023-02-04T02:48:53;99168.50;;;6.97;75.71
49729;BME280;66333;49.798;10.968;2023-02-04T02:51:19;99169.31;;;6.98;75.63
49729;BME280;66333;49.798;10.968;2023-02-04T02:53:47;99166.72;;;6.98;75.60
49729;BME280;66333;49.798;10.968;2023-02-04T02:56:16;99169.31;;;6.98;75.71
49729;BME280;66333;49.798;10.968;2023-02-04T02:58:43;99176.31;;;6.97;75.39
49729;BME280;66333;49.798;10.968;2023-02-04T03:01:10;99172.88;;;6.97;75.93
49729;BME280;66333;49.798;10.968;2023-02-04T03:03:39;99194.66;;;6.96;75.86
49729;BME280;66333;49.798;10.968;2023-02-04T03:06:11;99192.06;;;6.96;75.92
49729;BME280;66333;49.798;10.968;2023-02-04T03:08:39;99196.31;;;6.97;75.44
49729;BME280;66333;49.798;10.968;2023-02-04T03:11:07;99191.94;;;6.97;75.56
49729;BME280;66333;49.798;10.968;2023-02-04T03:13:36;99202.47;;;6.96;75.78
49729;BME280;66333;49.798;10.968;2023-02-04T03:16:03;99193.94;;;6.94;75.98
49729;BME280;66333;49.798;10.968;2023-02-04T03:18:33;99204.38;;;6.94;75.69
49729;BME280;66333;49.798;10.968;2023-02-04T03:21:01;99208.63;;;6.95;76.12
49729;BME280;66333;49.798;10.968;2023-02-04T03:23:29;99206.03;;;6.95;75.64
49729;BME280;66333;49.798;10.968;2023-02-04T03:25:57;99218.34;;;6.93;75.92
49729;BME280;66333;49.798;10.968;2023-02-04T03:28:24;99211.22;;;6.95;75.73
49729;BME280;66333;49.798;10.968;2023-02-04T03:30:52;99217.38;;;6.94;75.69
49729;BME280;66333;49.798;10.968;2023-02-04T03:33:20;99225.19;;;6.94;75.84
49729;BME280;66333;49.798;10.968;2023-02-04T03:35:46;99227.69;;;6.95;75.53
49729;BME280;66333;49.798;10.968;2023-02-04T03:38:13;99226.16;;;6.93;75.69
49729;BME280;66333;49.798;10.968;2023-02-04T03:40:39;99247.91;;;6.92;75.70
49729;BME280;66333;49.798;10.968;2023-02-04T03:43:05;99240.84;;;6.94;75.59
49729;BME280;66333;49.798;10.968;2023-02-04T03:45:32;99238.41;;;6.91;75.80
49729;BME280;66333;49.798;10.968;2023-02-04T03:48:00;99244.38;;;6.93;75.79
49729;BME280;66333;49.798;10.968;2023-02-04T03:50:26;99248.84;;;6.91;75.63
49729;BME280;66333;49.798;10.968;2023-02-04T03:52:52;99265.41;;;6.90;75.75
49729;BME280;66333;49.798;10.968;2023-02-04T03:55:19;99267.72;;;6.94;75.73
49729;BME280;66333;49.798;10.968;2023-02-04T03:57:45;99269.59;;;6.92;75.69
49729;BME280;66333;49.798;10.968;2023-02-04T04:00:13;99279.81;;;6.95;75.42
49729;BME280;66333;49.798;10.968;2023-02-04T04:02:39;99288.56;;;6.94;75.37
49729;BME280;66333;49.798;10.968;2023-02-04T04:05:08;99287.09;;;6.90;75.97
49729;BME280;66333;49.798;10.968;2023-02-04T04:07:35;99286.25;;;6.90;75.85
49729;BME280;66333;49.798;10.968;2023-02-04T04:10:01;99291.47;;;6.90;75.91
49729;BME280;66333;49.798;10.968;2023-02-04T04:12:28;99288.97;;;6.88;75.80
49729;BME280;66333;49.798;10.968;2023-02-04T04:14:55;99291.34;;;6.91;75.45
49729;BME280;66333;49.798;10.968;2023-02-04T04:17:21;99294.06;;;6.90;75.57
49729;BME280;66333;49.798;10.968;2023-02-04T04:19:47;99292.41;;;6.89;75.67
49729;BME280;66333;49.798;10.968;2023-02-04T04:22:16;99298.56;;;6.88;75.87
49729;BME280;66333;49.798;10.968;2023-02-04T04:24:42;99314.19;;;6.88;75.76
49729;BME280;66333;49.798;10.968;2023-02-04T04:27:08;99319.41;;;6.88;76.14
49729;BME280;66333;49.798;10.968;2023-02-04T04:29:35;99317.72;;;6.87;75.84
49729;BME280;66333;49.798;10.968;2023-02-04T04:32:01;99330.75;;;6.87;75.83
49729;BME280;66333;49.798;10.968;2023-02-04T04:34:29;99334.19;;;6.87;75.72
49729;BME280;66333;49.798;10.968;2023-02-04T04:36:55;99347.94;;;6.89;75.73
49729;BME280;66333;49.798;10.968;2023-02-04T04:39:23;99340.03;;;6.91;75.71
49729;BME280;66333;49.798;10.968;2023-02-04T04:41:50;99352.53;;;6.86;75.91
49729;BME280;66333;49.798;10.968;2023-02-04T04:44:16;99357.53;;;6.89;75.68
49729;BME280;66333;49.798;10.968;2023-02-04T04:46:43;99355.03;;;6.87;76.00
49729;BME280;66333;49.798;10.968;2023-02-04T04:49:09;99369.00;;;6.86;76.08
49729;BME280;66333;49.798;10.968;2023-02-04T04:51:36;99382.97;;;6.85;76.27
49729;BME280;66333;49.798;10.968;2023-02-04T04:54:02;99377.75;;;6.85;76.04
49729;BME280;66333;49.798;10.968;2023-02-04T04:56:30;99387.34;;;6.85;76.19
49729;BME280;66333;49.798;10.968;2023-02-04T04:58:56;99392.34;;;6.88;75.92
49729;BME280;66333;49.798;10.968;2023-02-04T05:01:23;99386.50;;;6.84;76.03
49729;BME280;66333;49.798;10.968;2023-02-04T05:03:49;99392.56;;;6.85;75.94
49729;BME280;66333;49.798;10.968;2023-02-04T05:06:16;99396.81;;;6.86;75.94
49729;BME280;66333;49.798;10.968;2023-02-04T05:08:42;99410.88;;;6.83;75.91
49729;BME280;66333;49.798;10.968;2023-02-04T05:11:09;99396.09;;;6.84;76.03
49729;BME280;66333;49.798;10.968;2023-02-04T05:13:36;99411.72;;;6.84;76.04
49729;BME280;66333;49.798;10.968;2023-02-04T05:16:03;99421.28;;;6.83;75.92
49729;BME280;66333;49.798;10.968;2023-02-04T05:18:30;99425.66;;;6.83;76.09
49729;BME280;66333;49.798;10.968;2023-02-04T05:20:56;99429.84;;;6.85;75.96
49729;BME280;66333;49.798;10.968;2023-02-04T05:23:23;99433.47;;;6.83;76.35
49729;BME280;66333;49.798;10.968;2023-02-04T05:25:49;99438.69;;;6.83;76.05
49729;BME280;66333;49.798;10.968;2023-02-04T05:28:15;99442.22;;;6.82;76.31
49729;BME280;66333;49.798;10.968;2023-02-04T05:30:43;99444.66;;;6.85;75.90
49729;BME280;66333;49.798;10.968;2023-02-04T05:33:10;99447.44;;;6.82;76.12
49729;BME280;66333;49.798;10.968;2023-02-04T05:35:36;99444.84;;;6.82;76.17
49729;BME280;66333;49.798;10.968;2023-02-04T05:38:02;99444.84;;;6.82;76.13
49729;BME280;66333;49.798;10.968;2023-02-04T05:40:29;99443.91;;;6.83;76.16
49729;BME280;66333;49.798;10.968;2023-02-04T05:42:55;99450.03;;;6.82;76.10
49729;BME280;66333;49.798;10.968;2023-02-04T05:45:22;99460.47;;;6.82;76.14
49729;BME280;66333;49.798;10.968;2023-02-04T05:47:49;99469.22;;;6.81;75.99
49729;BME280;66333;49.798;10.968;2023-02-04T05:50:16;99490.06;;;6.81;76.07
49729;BME280;66333;49.798;10.968;2023-02-04T05:52:42;99488.38;;;6.79;76.34
49729;BME280;66333;49.798;10.968;2023-02-04T05:55:09;99486.72;;;6.78;76.44
49729;BME280;66333;49.798;10.968;2023-02-04T05:57:36;99504.00;;;6.79;76.12
49729;BME280;66333;49.798;10.968;2023-02-04T06:00:04;99518.81;;;6.79;76.13
49729;BME280;66333;49.798;10.968;2023-02-04T06:02:31;99534.44;;;6.79;76.21
49729;BME280;66333;49.798;10.968;2023-02-04T06:04:59;99535.28;;;6.79;76.37
49729;BME280;66333;49.798;10.968;2023-02-04T06:07:25;99545.69;;;6.79;76.11
49729;BME280;66333;49.798;10.968;2023-02-04T06:09:51;99549.13;;;6.80;76.15
49729;BME280;66333;49.798;10.968;2023-02-04T06:12:18;99552.56;;;6.81;76.01
49729;BME280;66333;49.798;10.968;2023-02-04T06:14:44;99553.63;;;6.78;76.12
49729;BME280;66333;49.798;10.968;2023-02-04T06:17:11;99564.88;;;6.78;76.05
49729;BME280;66333;49.798;10.968;2023-02-04T06:19:37;99571.75;;;6.79;76.09
49729;BME280;66333;49.798;10.968;2023-02-04T06:22:05;99575.28;;;6.78;76.22
49729;BME280;66333;49.798;10.968;2023-02-04T06:24:31;99576.97;;;6.79;76.02
49729;BME280;66333;49.798;10.968;2023-02-04T06:26:57;99580.50;;;6.78;76.23
49729;BME280;66333;49.798;10.968;2023-02-04T06:29:24;99583.19;;;6.77;76.03
49729;BME280;66333;49.798;10.968;2023-02-04T06:31:50;99588.31;;;6.78;76.21
49729;BME280;66333;49.798;10.968;2023-02-04T06:34:17;99596.13;;;6.78;76.27
49729;BME280;66333;49.798;10.968;2023-02-04T06:36:43;99604.88;;;6.77;76.37
49729;BME280;66333;49.798;10.968;2023-02-04T06:39:11;99601.34;;;6.78;76.05
49729;BME280;66333;49.798;10.968;2023-02-04T06:41:37;99601.34;;;6.78;76.12
49729;BME280;66333;49.798;10.968;2023-02-04T06:44:04;99608.41;;;6.76;76.23
49729;BME280;66333;49.798;10.968;2023-02-04T06:46:30;99623.84;;;6.79;76.09
49729;BME280;66333;49.798;10.968;2023-02-04T06:48:57;99615.28;;;6.77;76.28
49729;BME280;66333;49.798;10.968;2023-02-04T06:51:23;99624.03;;;6.76;75.91
49729;BME280;66333;49.798;10.968;2023-02-04T06:53:50;99624.03;;;6.76;76.24
49729;BME280;66333;49.798;10.968;2023-02-04T06:56:18;99622.38;;;6.75;76.23
49729;BME280;66333;49.798;10.968;2023-02-04T06:58:44;99623.22;;;6.76;76.13
49729;BME280;66333;49.798;10.968;2023-02-04T07:01:11;99629.41;;;6.73;76.33
49729;BME280;66333;49.798;10.968;2023-02-04T07:03:37;99636.31;;;6.74;76.36
49729;BME280;66333;49.798;10.968;2023-02-04T07:06:04;99636.31;;;6.74;76.25
49729;BME280;66333;49.798;10.968;2023-02-04T07:08:30;99638.16;;;6.72;76.35
49729;BME280;66333;49.798;10.968;2023-02-04T07:10:57;99634.63;;;6.73;76.10
49729;BME280;66333;49.798;10.968;2023-02-04T07:13:25;99648.41;;;6.75;76.40
49729;BME280;66333;49.798;10.968;2023-02-04T07:15:52;99650.25;;;6.73;76.29
49729;BME280;66333;49.798;10.968;2023-02-04T07:18:18;99661.44;;;6.75;76.14
49729;BME280;66333;49.798;10.968;2023-02-04T07:20:44;99667.56;;;6.74;76.12
49729;BME280;66333;49.798;10.968;2023-02-04T07:23:11;99658.19;;;6.72;76.38
49729;BME280;66333;49.798;10.968;2023-02-04T07:25:38;99658.06;;;6.73;76.11
49729;BME280;66333;49.798;10.968;2023-02-04T07:28:04;99667.75;;;6.71;76.12
49729;BME280;66333;49.798;10.968;2023-02-04T07:30:32;99672.03;;;6.72;76.42
49729;BME280;66333;49.798;10.968;2023-02-04T07:32:58;99672.97;;;6.71;76.17
49729;BME280;66333;49.798;10.968;2023-02-04T07:35:25;99675.47;;;6.73;76.30
49729;BME280;66333;49.798;10.968;2023-02-04T07:37:51;99678.19;;;6.71;75.94
49729;BME280;66333;49.798;10.968;2023-02-04T07:40:18;99685.06;;;6.72;75.40
49729;BME280;66333;49.798;10.968;2023-02-04T07:42:45;99686.22;;;6.38;70.30
49729;BME280;66333;49.798;10.968;2023-02-04T07:45:12;99698.59;;;6.49;71.30
49729;BME280;66333;49.798;10.968;2023-02-04T07:47:40;99710.19;;;6.59;72.58
49729;BME280;66333;49.798;10.968;2023-02-04T07:50:06;99712.59;;;6.62;71.76
49729;BME280;66333;49.798;10.968;2023-02-04T07:52:33;99713.31;;;6.64;72.39
49729;BME280;66333;49.798;10.968;2023-02-04T07:54:59;99719.28;;;6.66;72.79
49729;BME280;66333;49.798;10.968;2023-02-04T07:57:26;99719.22;;;6.68;73.18
49729;BME280;66333;49.798;10.968;2023-02-04T07:59:53;99732.88;;;6.71;72.95
49729;BME280;66333;49.798;10.968;2023-02-04T08:02:19;99737.16;;;6.72;73.25
49729;BME280;66333;49.798;10.968;2023-02-04T08:04:47;99734.44;;;6.74;73.21
49729;BME280;66333;49.798;10.968;2023-02-04T08:07:14;99748.41;;;6.73;73.67
49729;BME280;66333;49.798;10.968;2023-02-04T08:09:40;99745.91;;;6.71;73.63
49729;BME280;66333;49.798;10.968;2023-02-04T08:12:06;99751.09;;;6.71;73.77
49729;BME280;66333;49.798;10.968;2023-02-04T08:14:33;99752.97;;;6.69;74.18
49729;BME280;66333;49.798;10.968;2023-02-04T08:16:59;99752.41;;;6.64;73.65
49729;BME280;66333;49.798;10.968;2023-02-04T08:19:26;99756.66;;;6.65;73.40
49729;BME280;66333;49.798;10.968;2023-02-04T08:21:53;99764.47;;;6.65;74.44
49729;BME280;66333;49.798;10.968;2023-02-04T08:24:20;99771.47;;;6.65;74.06
49729;BME280;66333;49.798;10.968;2023-02-04T08:26:46;99775.00;;;6.64;74.36
49729;BME280;66333;49.798;10.968;2023-02-04T08:29:13;99777.69;;;6.62;74.15
49729;BME280;66333;49.798;10.968;2023-02-04T08:31:39;99778.53;;;6.63;74.33
49729;BME280;66333;49.798;10.968;2023-02-04T08:34:06;99783.84;;;6.61;74.47
49729;BME280;66333;49.798;10.968;2023-02-04T08:36:32;99790.72;;;6.62;74.28
49729;BME280;66333;49.798;10.968;2023-02-04T08:39:00;99789.03;;;6.61;74.51
49729;BME280;66333;49.798;10.968;2023-02-04T08:41:26;99794.25;;;6.61;74.62
49729;BME280;66333;49.798;10.968;2023-02-04T08:43:53;99798.53;;;6.62;74.29
49729;BME280;66333;49.798;10.968;2023-02-04T08:46:19;99793.31;;;6.62;74.74
49729;BME280;66333;49.798;10.968;2023-02-04T08:48:46;99801.88;;;6.64;74.58
49729;BME280;66333;49.798;10.968;2023-02-04T08:51:12;99809.88;;;6.61;74.34
49729;BME280;66333;49.798;10.968;2023-02-04T08:53:39;99812.47;;;6.61;74.65
49729;BME280;66333;49.798;10.968;2023-02-04T08:56:07;99822.81;;;6.63;74.78
49729;BME280;66333;49.798;10.968;2023-02-04T08:58:34;99817.69;;;6.61;74.81
49729;BME280;66333;49.798;10.968;2023-02-04T09:01:01;99833.31;;;6.61;74.81
49729;BME280;66333;49.798;10.968;2023-02-04T09:03:28;99833.50;;;6.58;74.75
49729;BME280;66333;49.798;10.968;2023-02-04T09:05:54;99829.78;;;6.62;74.71
49729;BME280;66333;49.798;10.968;2023-02-04T09:08:20;99840.19;;;6.62;74.73
49729;BME280;66333;49.798;10.968;2023-02-04T09:10:47;99843.75;;;6.61;74.64
49729;BME280;66333;49.798;10.968;2023-02-04T09:13:15;99850.63;;;6.62;74.62
49729;BME280;66333;49.798;10.968;2023-02-04T09:15:41;99858.44;;;6.62;74.43
49729;BME280;66333;49.798;10.968;2023-02-04T09:18:08;99857.69;;;6.60;74.50
49729;BME280;66333;49.798;10.968;2023-02-04T09:20:40;99858.53;;;6.61;74.83
49729;BME280;66333;49.798;10.968;2023-02-04T09:23:07;99866.25;;;6.62;74.53
49729;BME280;66333;49.798;10.968;2023-02-04T09:25:36;99862.91;;;6.60;74.83
49729;BME280;66333;49.798;10.968;2023-02-04T09:28:03;99869.78;;;6.61;74.59
49729;BME280;66333;49.798;10.968;2023-02-04T09:30:31;99864.56;;;6.61;74.70
49729;BME280;66333;49.798;10.968;2023-02-04T09:32:57;99872.38;;;6.61;74.78
49729;BME280;66333;49.798;10.968;2023-02-04T09:35:24;99875.66;;;7.09;73.51
49729;BME280;66333;49.798;10.968;2023-02-04T09:37:50;99892.50;;;7.03;72.43
49729;BME280;66333;49.798;10.968;2023-02-04T09:40:17;99897.97;;;6.99;73.69
49729;BME280;66333;49.798;10.968;2023-02-04T09:42:46;99892.88;;;6.97;73.09
49729;BME280;66333;49.798;10.968;2023-02-04T09:45:14;99893.88;;;6.95;71.40
49729;BME280;66333;49.798;10.968;2023-02-04T09:47:43;99896.09;;;6.87;67.30
49729;BME280;66333;49.798;10.968;2023-02-04T09:50:13;99906.13;;;6.78;66.28
49729;BME280;66333;49.798;10.968;2023-02-04T09:52:40;99912.59;;;6.71;65.87
49729;BME280;66333;49.798;10.968;2023-02-04T09:55:11;99913.41;;;6.88;66.79
49729;BME280;66333;49.798;10.968;2023-02-04T09:57:38;99912.25;;;6.77;64.33
49729;BME280;66333;49.798;10.968;2023-02-04T10:00:08;99921.25;;;6.72;63.39
49729;BME280;66333;49.798;10.968;2023-02-04T10:02:39;99916.38;;;6.66;63.09
49729;BME280;66333;49.798;10.968;2023-02-04T10:05:12;99928.94;;;6.59;63.07
49729;BME280;66333;49.798;10.968;2023-02-04T10:07:40;99929.44;;;6.50;63.29
49729;BME280;66333;49.798;10.968;2023-02-04T10:10:13;99928.66;;;6.48;63.08
49729;BME280;66333;49.798;10.968;2023-02-04T10:12:41;99918.34;;;6.46;62.86
49729;BME280;66333;49.798;10.968;2023-02-04T10:15:12;99921.78;;;6.47;61.86
49729;BME280;66333;49.798;10.968;2023-02-04T10:17:39;99926.75;;;6.52;61.48
49729;BME280;66333;49.798;10.968;2023-02-04T10:20:12;99923.47;;;6.48;62.99
49729;BME280;66333;49.798;10.968;2023-02-04T10:22:39;99931.13;;;6.51;61.59
49729;BME280;66333;49.798;10.968;2023-02-04T10:25:11;99929.28;;;6.53;62.15
49729;BME280;66333;49.798;10.968;2023-02-04T10:27:46;99925.91;;;6.51;62.91
49729;BME280;66333;49.798;10.968;2023-02-04T10:30:18;99922.53;;;6.49;64.13
49729;BME280;66333;49.798;10.968;2023-02-04T10:32:45;99931.13;;;6.51;63.08
49729;BME280;66333;49.798;10.968;2023-02-04T10:35:15;99926.06;;;6.48;61.69
49729;BME280;66333;49.798;10.968;2023-02-04T10:37:41;99928.09;;;6.43;61.96
49729;BME280;66333;49.798;10.968;2023-02-04T10:40:27;99922.91;;;6.43;61.81
49729;BME280;66333;49.798;10.968;2023-02-04T10:42:54;99933.47;;;6.40;61.19
49729;BME280;66333;49.798;10.968;2023-02-04T10:45:22;99929.94;;;6.41;61.40
49729;BME280;66333;49.798;10.968;2023-02-04T10:47:50;99933.47;;;6.40;61.54
49729;BME280;66333;49.798;10.968;2023-02-04T10:50:20;99931.97;;;6.36;60.99
49729;BME280;66333;49.798;10.968;2023-02-04T10:52:50;99932.94;;;6.49;60.90
49729;BME280;66333;49.798;10.968;2023-02-04T10:55:21;99936.81;;;6.58;60.56
49729;BME280;66333;49.798;10.968;2023-02-04T10:57:49;99930.94;;;6.54;61.55
49729;BME280;66333;49.798;10.968;2023-02-04T11:00:18;99926.25;;;6.45;62.02
49729;BME280;66333;49.798;10.968;2023-02-04T11:02:50;99926.91;;;6.48;61.36
49729;BME280;66333;49.798;10.968;2023-02-04T11:05:24;99935.50;;;6.50;60.50
49729;BME280;66333;49.798;10.968;2023-02-04T11:07:55;99936.16;;;6.54;60.93
49729;BME280;66333;49.798;10.968;2023-02-04T11:10:23;99933.97;;;6.62;60.85
49729;BME280;66333;49.798;10.968;2023-02-04T11:13:01;99935.44;;;6.66;60.97
49729;BME280;66333;49.798;10.968;2023-02-04T11:15:43;99934.25;;;6.88;60.51
49729;BME280;66333;49.798;10.968;2023-02-04T11:18:12;99926.84;;;6.96;61.50
49729;BME280;66333;49.798;10.968;2023-02-04T11:20:55;99928.69;;;6.94;62.53
49729;BME280;66333;49.798;10.968;2023-02-04T11:23:34;99933.50;;;6.86;63.57
49729;BME280;66333;49.798;10.968;2023-02-04T11:26:10;99936.44;;;6.79;65.33
49729;BME280;66333;49.798;10.968;2023-02-04T11:28:53;99941.00;;;6.76;66.23
49729;BME280;66333;49.798;10.968;2023-02-04T11:31:42;99937.72;;;6.72;66.45
49729;BME280;66333;49.798;10.968;2023-02-04T11:34:24;99943.84;;;6.71;66.87
49729;BME280;66333;49.798;10.968;2023-02-04T11:37:09;99941.44;;;6.68;67.02
49729;BME280;66333;49.798;10.968;2023-02-04T11:39:39;99949.13;;;6.86;67.34
49729;BME280;66333;49.798;10.968;2023-02-04T11:42:17;99943.41;;;6.95;66.95
49729;BME280;66333;49.798;10.968;2023-02-04T11:44:49;99946.16;;;6.92;66.70
49729;BME280;66333;49.798;10.968;2023-02-04T11:47:16;99950.91;;;6.85;66.22
49729;BME280;66333;49.798;10.968;2023-02-04T11:49:45;99944.34;;;6.78;66.57
49729;BME280;66333;49.798;10.968;2023-02-04T11:52:19;99953.19;;;6.75;67.01
49729;BME280;66333;49.798;10.968;2023-02-04T11:54:52;99947.41;;;6.70;67.45
49729;BME280;66333;49.798;10.968;2023-02-04T11:57:18;99945.72;;;6.69;67.82
49729;BME280;66333;49.798;10.968;2023-02-04T11:59:45;99951.75;;;6.70;68.08
49729;BME280;66333;49.798;10.968;2023-02-04T12:02:15;99959.66;;;6.68;68.04
49729;BME280;66333;49.798;10.968;2023-02-04T12:04:50;99958.91;;;6.66;68.53
49729;BME280;66333;49.798;10.968;2023-02-04T12:07:23;99956.38;;;6.65;68.67
49729;BME280;66333;49.798;10.968;2023-02-04T12:09:50;99958.97;;;6.65;68.70
49729;BME280;66333;49.798;10.968;2023-02-04T12:12:23;99961.69;;;6.63;68.94
49729;BME280;66333;49.798;10.968;2023-02-04T12:14:55;99965.22;;;6.62;69.24
49729;BME280;66333;49.798;10.968;2023-02-04T12:17:22;99977.50;;;6.60;69.61
49729;BME280;66333;49.798;10.968;2023-02-04T12:19:48;99965.41;;;6.59;69.63
49729;BME280;66333;49.798;10.968;2023-02-04T12:22:15;99972.44;;;6.57;69.82
49729;BME280;66333;49.798;10.968;2023-02-04T12:24:43;99971.59;;;6.57;69.80
49729;BME280;66333;49.798;10.968;2023-02-04T12:27:09;99977.63;;;6.57;69.82
49729;BME280;66333;49.798;10.968;2023-02-04T12:29:35;99969.06;;;6.55;70.04
49729;BME280;66333;49.798;10.968;2023-02-04T12:32:02;99970.75;;;6.56;70.17
49729;BME280;66333;49.798;10.968;2023-02-04T12:34:29;99975.97;;;6.56;70.19
49729;BME280;66333;49.798;10.968;2023-02-04T12:36:55;99982.44;;;6.65;70.12
49729;BME280;66333;49.798;10.968;2023-02-04T12:39:21;99978.31;;;6.76;69.25
49729;BME280;66333;49.798;10.968;2023-02-04T12:41:49;99981.84;;;6.75;69.54
49729;BME280;66333;49.798;10.968;2023-02-04T12:44:16;99973.25;;;6.73;69.42
49729;BME280;66333;49.798;10.968;2023-02-04T12:46:42;99980.31;;;6.71;69.79
49729;BME280;66333;49.798;10.968;2023-02-04T12:49:08;99980.69;;;6.34;63.04
49729;BME280;66333;49.798;10.968;2023-02-04T12:51:35;99981.94;;;6.42;63.42
49729;BME280;66333;49.798;10.968;2023-02-04T12:54:01;99985.22;;;6.46;63.62
49729;BME280;66333;49.798;10.968;2023-02-04T12:56:28;99985.03;;;6.49;66.05
49729;BME280;66333;49.798;10.968;2023-02-04T12:58:55;99979.91;;;6.47;67.16
49729;BME280;66333;49.798;10.968;2023-02-04T13:01:22;99985.03;;;6.49;66.62
49729;BME280;66333;49.798;10.968;2023-02-04T13:03:48;99986.75;;;6.50;67.24